Flight Track Log - Related Links

Times and Time Zones

All times are in EDT time to prevent confusion due to time zone crossing. See the QXE2086 flight status page for this flight to view local times or setup timezone preferences in your user account.

Time Position Orientation Groundspeed Altitude Reporting Facility
EDT Latitude Longitude Course Direction KTS MPH feet Rate Location/Type
Fri 10:45:00 PM 47.2245 -121.5977 110° East  Level Estimated
Fri 10:46:00 PM 47.1919 -121.4962 110° East  Level Estimated
Fri 10:47:00 PM 47.1962 -121.3841 87° East  Level FlightAware Approximate
Fri 10:48:00 PM 47.1624 -121.2835 102° East  Level Estimated
Fri 10:49:00 PM 47.1285 -121.1831 109° East  Level Estimated
Fri 10:50:00 PM 47.1242 -121.0712 93° East  Level FlightAware Approximate
Fri 10:51:00 PM 47.1198 -120.9593 93° East  Level FlightAware Approximate
Fri 10:52:00 PM 47.0769 -120.8659 124° Southeast  Level FlightAware Approximate
Fri 10:53:00 PM 47.0377 -120.7807 124° Southeast  Level FlightAware Approximate
Fri 10:54:00 PM 46.9985 -120.6957 124° Southeast  Level FlightAware Approximate
Fri 10:55:00 PM 46.9592 -120.6108 124° Southeast  Level FlightAware Approximate
Fri 10:56:00 PM 46.9199 -120.5260 124° Southeast  Level FlightAware Approximate
Fri 10:57:00 PM 46.8821 -120.4338 118° Southeast  Level FlightAware Approximate
Fri 10:58:00 PM 46.8493 -120.3434 118° Southeast  Level FlightAware Approximate
Fri 10:59:00 PM 46.8164 -120.2531 118° Southeast  Level FlightAware Approximate
Fri 11:00:00 PM 46.7834 -120.1629 118° Southeast  Level FlightAware Approximate
Fri 11:01:00 PM 46.7504 -120.0729 118° Southeast  Level FlightAware Approximate
Fri 11:02:00 PM 46.7173 -119.9829 118° Southeast  Level FlightAware Approximate
Fri 11:03:00 PM 46.6841 -119.8930 118° Southeast  Level FlightAware Approximate
Fri 11:04:00 PM 46.6480 -119.7958 118° Southeast  Level FlightAware Approximate
Fri 11:05:00 PM 46.6119 -119.6987 118° Southeast  Level FlightAware Approximate
Fri 11:06:00 PM 46.5745 -119.6028 120° Southeast  Level FlightAware Approximate
Fri 11:07:00 PM 46.5394 -119.5051 117° Southeast  Level FlightAware Approximate
Fri 11:08:00 PM 46.5046 -119.4053 117° Southeast  Level FlightAware Approximate
Fri 11:09:00 PM 46.4696 -119.3057 117° Southeast  Level FlightAware Approximate
Fri 11:10:00 PM 46.4267 -119.2160 119° Southeast  Level FlightAware Approximate
Fri 11:11:00 PM 46.3892 -119.1184 119° Southeast  Level FlightAware Approximate
Fri 11:12:00 PM 46.3517 -119.0210 119° Southeast  Level FlightAware Approximate
Fri 11:13:00 PM 46.3166 -118.9218 117° Southeast  Level FlightAware Approximate
Fri 11:14:00 PM 46.2816 -118.8225 117° Southeast  Level FlightAware Approximate
Fri 11:15:00 PM 46.2462 -118.7237 120° Southeast  Level FlightAware Approximate
Fri 11:16:00 PM 46.2076 -118.6273 120° Southeast  Level FlightAware Approximate
Fri 11:17:00 PM 46.1667 -118.5333 126° Southeast  Level FlightAware Approximate
Fri 11:18:00 PM 46.1373 -118.4306 112° Southeast  Level FlightAware Approximate
Fri 11:19:00 PM 46.1045 -118.3302 116° Southeast  Level FlightAware Approximate
Fri 11:20:00 PM 46.0948 -118.2890 North  Level Estimated
Fri 11:21:00 PM 46.0948 -118.2890 North  Level Estimated
Fri 11:22:00 PM 46.0948 -118.2890 North  Level Estimated
Fri 11:23:00 PM 46.0948 -118.2890 North  Level Estimated
Fri 11:24:00 PM 46.0948 -118.2890 North  Level Estimated
Fri 11:25:00 PM 46.0948 -118.2890 North  Level Estimated

Login

Don't have an account? Register now (free) for customized features, flight alerts, and more!